Time;durP1;ratioP1;P1;durP2;ratioP2;P2;SDS_P1;SDS_P2;PMS_P1;PMS_P2;Temp;Humidity;BMP_temperature;BMP_pressure;BME280_temperature;BME280_humidity;BME280_pressure;Samples;Min_cycle;Max_cycle;Signal;HPM_P1;HPM_P2
2023/01/08 00:13:35;;;;;;;1297.43;521.23;;;9.20;99.90;;;;;;4972923;28;20048;-89
2023/01/08 00:21:29;;;;;;;1258.70;480.43;;;9.30;99.90;;;;;;4915107;29;20108;-86
2023/01/08 00:33:08;;;;;;;1271.40;495.60;;;9.30;99.90;;;;;;4859120;29;20084;-87
2023/01/08 00:51:39;;;;;;;1291.80;524.83;;;9.80;99.90;;;;;;4808306;29;20557;-89
2023/01/08 01:07:26;;;;;;;;;;;;;;;;;;;;;
2023/01/08 01:11:16;;;;;;;;;;;;;;;;;;;;;
2023/01/08 01:18:35;;;;;;;1274.83;521.97;;;8.90;99.90;;;;;;4937945;29;20116;-90
2023/01/08 01:34:02;;;;;;;;;;;;;;;;;;;;;
2023/01/08 01:37:03;;;;;;;1265.17;524.17;;;9.90;99.90;;;;;;5034046;28;20409;-87
2023/01/08 01:55:06;;;;;;;;;;;;;;;;;;;;;
2023/01/08 02:02:27;;;;;;;1270.20;514.70;;;9.10;99.90;;;;;;5096619;28;20063;-89
2023/01/08 02:09:52;;;;;;;1230.67;477.93;;;9.10;99.90;;;;;;5095241;28;20419;-88
2023/01/08 02:17:37;;;;;;;1239.10;482.70;;;9.10;99.90;;;;;;5076989;28;20503;-88
2023/01/08 02:25:10;;;;;;;;;;;;;;;;;;;;;
2023/01/08 02:36:20;;;;;;;1258.37;514.97;;;9.00;99.90;;;;;;4898412;29;20150;-87
2023/01/08 02:47:39;;;;;;;1255.07;480.13;;;9.90;99.90;;;;;;4805354;29;20126;-90
2023/01/08 02:54:43;;;;;;;1305.38;525.20;;;8.80;99.90;;;;;;4805770;29;20115;-87
2023/01/08 03:13:47;;;;;;;1239.67;467.23;;;8.90;99.90;;;;;;5032340;28;20047;-89
2023/01/08 03:17:20;;;;;;;;;;;;;;;;;;;;;
2023/01/08 03:21:24;;;;;;;;;;;;;;;;;;;;;
2023/01/08 03:24:29;;;;;;;1228.00;464.07;;;8.00;99.90;;;;;;5032778;28;20075;-89
2023/01/08 03:28:09;;;;;;;1269.83;512.53;;;8.30;99.90;;;;;;5023453;28;20057;-87
2023/01/08 03:31:57;;;;;;;1258.73;516.80;;;8.40;99.90;;;;;;4953620;29;20070;-88
2023/01/08 03:35:32;;;;;;;;;;;;;;;;;;;;;
2023/01/08 03:39:12;;;;;;;;;;;;;;;;;;;;;
2023/01/08 03:42:23;;;;;;;1294.90;518.43;;;8.20;99.90;;;;;;4893856;29;20041;-90
2023/01/08 03:46:07;;;;;;;1286.93;518.33;;;8.10;99.90;;;;;;4880577;29;20514;-92
2023/01/08 03:53:46;;;;;;;;;;;;;;;;;;;;;
2023/01/08 04:12:47;;;;;;;1258.07;514.57;;;8.10;99.90;;;;;;4853641;29;20049;-89
2023/01/08 04:16:31;;;;;;;1268.23;510.87;;;8.80;99.90;;;;;;4858765;29;20072;-88
2023/01/08 04:24:12;;;;;;;;;;;;;;;;;;;;;
2023/01/08 04:28:06;;;;;;;1284.87;516.37;;;8.00;99.90;;;;;;4807800;29;20073;-88
2023/01/08 04:31:45;;;;;;;1274.20;516.53;;;7.80;99.90;;;;;;4837772;29;20074;-88
2023/01/08 04:35:21;;;;;;;1204.63;465.27;;;7.80;99.90;;;;;;4819067;29;20470;-87
2023/01/08 04:39:32;;;;;;;1262.80;507.37;;;7.80;99.90;;;;;;4805318;29;20114;-89
2023/01/08 04:46:50;;;;;;;1219.30;459.87;;;7.70;99.90;;;;;;4846063;29;20065;-89
2023/01/08 04:50:51;;;;;;;1216.27;458.17;;;7.70;99.90;;;;;;4875606;29;20183;-89
2023/01/08 05:05:36;;;;;;;1179.67;453.23;;;6.90;99.90;;;;;;4860344;29;20056;-90
2023/01/08 05:16:06;;;;;;;1171.30;515.10;;;7.60;99.90;;;;;;4930248;29;20086;-86
2023/01/08 05:20:18;;;;;;;1209.30;510.07;;;7.60;99.90;;;;;;4948338;29;20094;-90
2023/01/08 05:24:00;;;;;;;1234.57;510.13;;;7.60;99.90;;;;;;4929287;29;20139;-88
2023/01/08 05:31:24;;;;;;;1228.97;506.57;;;8.50;99.90;;;;;;4955484;29;20513;-86
2023/01/08 05:35:14;;;;;;;1222.90;507.10;;;7.60;99.90;;;;;;4879309;29;20132;-86
2023/01/08 05:38:54;;;;;;;;;;;;;;;;;;;;;
2023/01/08 05:42:34;;;;;;;1218.93;505.47;;;7.60;99.90;;;;;;4806014;29;20186;-90
2023/01/08 05:46:08;;;;;;;;;;;;;;;;;;;;;
2023/01/08 05:50:12;;;;;;;1178.03;449.47;;;7.60;99.90;;;;;;4803959;29;20065;-86
2023/01/08 05:53:57;;;;;;;1223.70;508.70;;;7.60;99.90;;;;;;4835893;29;20080;-87
2023/01/08 06:01:20;;;;;;;1237.10;504.83;;;7.60;99.90;;;;;;4842208;29;20041;-87
2023/01/08 06:20:23;;;;;;;;;;;7.50;99.90;;;;;;4877087;29;20051;-88
2023/01/08 06:24:25;;;;;;;;;;;;;;;;;;;;;
2023/01/08 06:31:25;;;;;;;1214.30;502.47;;;7.60;99.90;;;;;;4823826;29;20154;-90
2023/01/08 06:53:44;;;;;;;1222.97;506.27;;;6.90;99.90;;;;;;4934844;29;20106;-86
2023/01/08 07:01:01;;;;;;;;;;;;;;;;;;;;;
2023/01/08 07:05:22;;;;;;;;;;;;;;;;;;;;;
2023/01/08 07:25:25;;;;;;;1221.10;501.43;;;7.40;99.90;;;;;;4891484;29;20047;-88
2023/01/08 07:33:03;;;;;;;1184.50;435.77;;;7.40;99.90;;;;;;4901119;29;20089;-89
2023/01/08 07:36:28;;;;;;;1186.93;436.27;;;7.40;99.90;;;;;;4935257;29;20055;-89
2023/01/08 07:40:39;;;;;;;;;;;;;;;;;;;;;
2023/01/08 07:44:33;;;;;;;1191.97;437.87;;;7.40;99.90;;;;;;4894198;29;20626;-91
2023/01/08 07:48:15;;;;;;;;;;;;;;;;;;;;;
2023/01/08 07:51:29;;;;;;;1210.90;436.23;;;7.40;99.90;;;;;;4827679;29;20087;-92
2023/01/08 07:57:57;;;;;;;1209.63;437.77;;;7.30;99.90;;;;;;4829567;29;20277;-92
2023/01/08 08:01:05;;;;;;;1237.43;504.30;;;7.30;99.90;;;;;;4825776;29;20473;-91
2023/01/08 08:04:20;;;;;;;1244.57;505.07;;;7.30;99.90;;;;;;4848083;29;20093;-92
2023/01/08 08:08:17;;;;;;;1210.57;438.17;;;7.10;99.90;;;;;;4859364;29;20767;-92
2023/01/08 08:11:47;;;;;;;1239.70;502.43;;;7.10;99.90;;;;;;4858960;29;20355;-91
2023/01/08 08:15:16;;;;;;;;;;;;;;;;;;;;;
2023/01/08 08:18:37;;;;;;;1242.40;502.17;;;7.20;99.90;;;;;;4806547;29;20058;-91
2023/01/08 08:22:01;;;;;;;1213.17;440.00;;;7.10;99.90;;;;;;4840212;29;20110;-91
2023/01/08 08:25:13;;;;;;;1245.57;499.10;;;7.10;99.90;;;;;;4861957;29;20045;-91
2023/01/08 08:28:48;;;;;;;1251.90;505.97;;;7.10;99.90;;;;;;4878763;29;20064;-89
2023/01/08 08:32:03;;;;;;;1223.50;430.17;;;7.10;99.90;;;;;;4876724;29;20097;-91
2023/01/08 08:35:24;;;;;;;1228.13;410.30;;;7.00;99.90;;;;;;4861336;29;20301;-92
2023/01/08 08:38:25;;;;;;;1191.23;391.20;;;7.00;99.90;;;;;;4853795;29;20378;-89
2023/01/08 08:41:41;;;;;;;1240.93;493.13;;;6.90;99.90;;;;;;4869744;29;20344;-90
2023/01/08 08:44:49;;;;;;;1201.77;403.17;;;7.00;99.90;;;;;;4914573;29;20292;-89
2023/01/08 08:48:09;;;;;;;1248.97;492.67;;;7.00;99.90;;;;;;4912934;29;20305;-91
2023/01/08 08:51:25;;;;;;;1201.97;397.63;;;7.10;99.90;;;;;;4930382;29;20792;-90
2023/01/08 08:55:11;;;;;;;1242.93;499.90;;;7.10;99.90;;;;;;4933330;29;20346;-90
2023/01/08 08:58:49;;;;;;;1241.37;491.53;;;7.20;99.90;;;;;;4986715;28;20280;-88
2023/01/08 09:02:08;;;;;;;1195.53;411.33;;;7.20;99.90;;;;;;5025368;28;20292;-92
2023/01/08 09:05:38;;;;;;;1194.90;427.53;;;7.20;99.90;;;;;;5024466;28;20350;-91
2023/01/08 09:08:59;;;;;;;1235.60;507.00;;;7.30;99.90;;;;;;4982839;28;20793;-90
2023/01/08 09:12:07;;;;;;;1186.90;421.67;;;7.40;99.90;;;;;;4985516;28;20365;-89
2023/01/08 09:15:26;;;;;;;1227.73;507.20;;;7.40;99.90;;;;;;4988340;28;20289;-93
2023/01/08 09:19:01;;;;;;;;;;;;;;;;;;;;;
2023/01/08 09:22:09;;;;;;;1225.87;500.83;;;7.60;99.90;;;;;;4952031;29;20443;-90
2023/01/08 09:25:13;;;;;;;1133.80;439.23;;;7.60;99.90;;;;;;4935757;29;20283;-90
2023/01/08 09:28:19;;;;;;;1115.13;431.50;;;7.60;99.90;;;;;;4950237;29;20081;-91
2023/01/08 09:31:24;;;;;;;1109.33;427.80;;;8.00;99.90;;;;;;4939294;29;20386;-89
2023/01/08 09:35:01;;;;;;;;;;;;;;;;;;;;;
2023/01/08 09:41:42;;;;;;;1243.53;508.93;;;7.70;99.90;;;;;;4949037;29;20047;-91
2023/01/08 09:45:04;;;;;;;1243.37;502.97;;;7.70;99.90;;;;;;4944367;28;20055;-91
2023/01/08 09:52:11;;;;;;;;;;;;;;;;;;;;;
2023/01/08 09:55:04;;;;;;;;;;;;;;;;;;;;;
2023/01/08 09:58:52;;;;;;;;;;;;;;;;;;;;;
2023/01/08 10:05:41;;;;;;;1264.10;500.67;;;8.10;99.90;;;;;;4936231;29;20284;-92
2023/01/08 10:09:20;;;;;;;1235.80;447.60;;;7.40;99.90;;;;;;4943425;29;20047;-89
2023/01/08 10:12:35;;;;;;;1288.30;513.93;;;8.20;99.90;;;;;;4952519;29;20051;-90
2023/01/08 10:15:59;;;;;;;1247.53;453.97;;;8.10;99.90;;;;;;4936993;29;20107;-89
2023/01/08 10:19:18;;;;;;;1287.03;511.37;;;8.20;99.90;;;;;;4951086;29;20047;-91
2023/01/08 10:23:25;;;;;;;;;;;;;;;;;;;;;
2023/01/08 10:26:47;;;;;;;;;;;;;;;;;;;;;
2023/01/08 10:30:08;;;;;;;1289.00;505.87;;;8.40;99.90;;;;;;4916979;29;19933;-88
2023/01/08 10:33:31;;;;;;;1303.03;508.40;;;8.20;99.90;;;;;;4935629;29;20048;-88
2023/01/08 10:37:01;;;;;;;1321.33;507.87;;;8.80;99.90;;;;;;4937855;28;20055;-91
2023/01/08 10:40:35;;;;;;;1262.83;431.20;;;8.40;99.90;;;;;;4992207;28;20292;-89
2023/01/08 10:44:09;;;;;;;1310.33;497.03;;;8.50;99.90;;;;;;5010639;28;20288;-89
2023/01/08 10:47:05;;;;;;;1270.13;428.05;;;7.70;99.90;;;;;;4965433;28;20357;-87
2023/01/08 10:49:42;;;;;;;1321.63;517.10;;;8.60;99.90;;;;;;4960713;28;20055;-89
2023/01/08 10:52:35;;;;;;;1253.90;427.00;;;8.60;99.90;;;;;;4951517;28;20352;-89
2023/01/08 10:55:26;;;;;;;1259.32;431.55;;;9.00;99.90;;;;;;4967018;28;20333;-90
2023/01/08 10:58:03;;;;;;;1323.87;507.00;;;8.60;99.90;;;;;;4981332;28;20050;-88
2023/01/08 11:00:39;;;;;;;1257.03;420.07;;;8.60;99.90;;;;;;4992445;28;20884;-89
2023/01/08 11:03:31;;;;;;;1235.57;502.20;;;8.60;99.90;;;;;;5006366;28;20296;-90
2023/01/08 11:06:20;;;;;;;1168.40;406.37;;;8.60;99.90;;;;;;5013848;28;20267;-89
2023/01/08 11:09:03;;;;;;;1156.87;406.13;;;8.70;99.90;;;;;;5003164;28;20280;-89
2023/01/08 11:11:45;;;;;;;1152.57;443.57;;;8.70;99.90;;;;;;5003990;28;20292;-90
2023/01/08 11:14:45;;;;;;;;;;;;;;;;;;;;;
2023/01/08 11:17:30;;;;;;;1202.57;517.20;;;8.90;99.90;;;;;;4994578;28;20056;-89
2023/01/08 11:20:36;;;;;;;1174.50;514.63;;;8.70;99.90;;;;;;5009514;28;20083;-89
2023/01/08 11:23:54;;;;;;;;;;;;;;;;;;;;;
2023/01/08 11:27:13;;;;;;;;;;;;;;;;;;;;;
2023/01/08 11:31:14;;;;;;;;;;;;;;;;;;;;;
2023/01/08 11:35:06;;;;;;;1175.07;516.20;;;8.80;99.90;;;;;;5052152;28;20131;-95
2023/01/08 11:38:51;;;;;;;;;;;;;;;;;;;;;
2023/01/08 11:42:17;;;;;;;;;;;;;;;;;;;;;
2023/01/08 11:45:50;;;;;;;1166.33;459.97;;;8.70;99.90;;;;;;4972480;28;20425;-90
2023/01/08 11:49:35;;;;;;;1140.93;399.23;;;8.80;99.90;;;;;;4971903;28;20290;-88
2023/01/08 11:53:14;;;;;;;1225.67;502.87;;;8.80;99.90;;;;;;4969313;28;20388;-89
2023/01/08 11:56:52;;;;;;;;;;;;;;;;;;;;;
2023/01/08 12:00:12;;;;;;;1184.03;401.97;;;8.90;99.90;;;;;;4990705;28;20309;-90
2023/01/08 12:03:02;;;;;;;1198.13;401.03;;;9.00;99.90;;;;;;4976596;28;20293;-89
2023/01/08 12:24:33;;;;;;;1236.40;508.83;;;9.00;99.90;;;;;;5010040;23;20358;-91
2023/01/08 12:28:12;;;;;;;1218.25;504.98;;;9.10;99.90;;;;;;5023657;28;20695;-93
2023/01/08 12:31:56;;;;;;;;;;;;;;;;;;;;;
2023/01/08 12:35:34;;;;;;;1297.70;498.57;;;9.10;99.90;;;;;;4992314;28;20910;-91
2023/01/08 12:43:18;;;;;;;;;;;;;;;;;;;;;
2023/01/08 12:47:08;;;;;;;;;;;;;;;;;;;;;
2023/01/08 12:55:03;;;;;;;1206.57;404.13;;;9.30;99.90;;;;;;4839643;29;20914;-91
2023/01/08 13:10:54;;;;;;;1153.13;409.43;;;9.00;99.90;;;;;;5007427;28;20887;-90
2023/01/08 13:14:43;;;;;;;;;;;;;;;;;;;;;
2023/01/08 13:18:09;;;;;;;1198.03;507.97;;;8.80;99.90;;;;;;5002692;28;20285;-90
2023/01/08 13:22:12;;;;;;;;;;;;;;;;;;;;;
2023/01/08 13:33:54;;;;;;;1282.10;518.23;;;9.00;99.90;;;;;;4952677;28;20062;-91
2023/01/08 13:37:50;;;;;;;;;;;;;;;;;;;;;
2023/01/08 13:41:23;;;;;;;;;;;;;;;;;;;;;
2023/01/08 13:44:53;;;;;;;;;;;;;;;;;;;;;
2023/01/08 13:48:23;;;;;;;1189.87;491.00;;;8.90;99.90;;;;;;4969324;28;20130;-92
2023/01/08 13:59:36;;;;;;;1062.53;468.33;;;8.50;99.90;;;;;;4928528;28;20094;-90
2023/01/08 14:03:19;;;;;;;935.23;459.87;;;8.80;99.90;;;;;;4883328;29;20117;-90
2023/01/08 14:07:31;;;;;;;829.65;434.48;;;8.80;99.90;;;;;;4889281;29;20124;-90
2023/01/08 14:11:03;;;;;;;;;;;;;;;;;;;;;
2023/01/08 14:14:44;;;;;;;1031.20;449.23;;;8.90;99.90;;;;;;4170272;27;28552864;-90
2023/01/08 14:21:54;;;;;;;904.33;409.83;;;8.80;99.90;;;;;;5153330;27;20093;-90
2023/01/08 14:25:48;;;;;;;;;;;;;;;;;;;;;
2023/01/08 14:29:48;;;;;;;;;;;;;;;;;;;;;
2023/01/08 14:33:34;;;;;;;;;;;;;;;;;;;;;
2023/01/08 14:37:09;;;;;;;;;;;;;;;;;;;;;
2023/01/08 14:40:54;;;;;;;878.17;404.07;;;8.40;99.90;;;;;;4931523;28;20058;-90
2023/01/08 14:44:37;;;;;;;960.73;449.33;;;8.40;99.90;;;;;;4900960;29;20063;-91
2023/01/08 14:51:55;;;;;;;901.58;436.20;;;8.30;99.90;;;;;;4874451;29;20088;-90
2023/01/08 14:55:23;;;;;;;;;;;;;;;;;;;;;
2023/01/08 14:58:57;;;;;;;831.22;442.65;;;8.10;99.90;;;;;;4874319;29;20068;-91
2023/01/08 15:06:40;;;;;;;927.00;417.33;;;8.00;99.90;;;;;;4923375;29;20165;-93
2023/01/08 15:10:43;;;;;;;986.60;449.33;;;8.60;99.90;;;;;;4893257;29;20057;-90
2023/01/08 15:14:49;;;;;;;958.13;450.33;;;7.80;99.90;;;;;;5576586;22;20133;-92
2023/01/08 15:18:25;;;;;;;861.88;427.90;;;7.80;99.90;;;;;;4949550;29;20058;-91
2023/01/08 15:26:11;;;;;;;;;;;;;;;;;;;;;
2023/01/08 15:30:02;;;;;;;;;;;;;;;;;;;;;
2023/01/08 15:33:59;;;;;;;;;;;;;;;;;;;;;
2023/01/08 15:37:20;;;;;;;;;;;;;;;;;;;;;
2023/01/08 15:40:45;;;;;;;390.20;256.13;;;7.40;99.90;;;;;;4860995;29;20089;-90
2023/01/08 15:43:56;;;;;;;971.07;462.30;;;7.30;99.90;;;;;;4845859;29;20053;-91
2023/01/08 15:47:50;;;;;;;;;;;;;;;;;;;;;
2023/01/08 15:51:22;;;;;;;;;;;;;;;;;;;;;
2023/01/08 15:55:11;;;;;;;685.72;353.40;;;7.10;99.90;;;;;;4861819;29;20057;-91
2023/01/08 15:58:42;;;;;;;;;;;;;;;;;;;;;
2023/01/08 16:02:08;;;;;;;;;;;;;;;;;;;;;
2023/01/08 16:05:46;;;;;;;1047.73;464.67;;;6.70;99.90;;;;;;4823008;29;20129;-91
2023/01/08 16:09:56;;;;;;;;;;;;;;;;;;;;;
2023/01/08 16:13:05;;;;;;;3.15;1.02;;;6.70;99.90;;;;;;4752570;30;20522;-91
2023/01/08 16:42:13;;;;;;;;;;;;;;;;;;;;;
2023/01/08 16:50:01;;;;;;;1.00;0.30;;;6.30;99.90;;;;;;4769244;30;20043;-91
2023/01/08 17:08:29;;;;;;;0.40;0.30;;;6.10;99.90;;;;;;4860162;29;20058;-91
2023/01/08 18:00:57;;;;;;;0.43;0.32;;;5.40;99.90;;;;;;4915080;29;20135;-89
2023/01/08 18:03:44;;;;;;;0.60;0.40;;;5.40;99.90;;;;;;4993978;23;20107;-88
2023/01/08 18:27:12;;;;;;;1103.10;503.67;;;5.10;99.90;;;;;;5032856;28;20467;-90
2023/01/08 18:35:18;;;;;;;1299.40;504.60;;;5.10;99.90;;;;;;4991858;28;20077;-91
2023/01/08 18:39:21;;;;;;;1243.40;438.87;;;5.10;99.90;;;;;;4929162;29;20102;-90
2023/01/08 18:54:14;;;;;;;1257.10;431.23;;;5.10;99.90;;;;;;4785286;30;20055;-88
2023/01/08 19:02:10;;;;;;;1288.03;431.87;;;5.20;99.90;;;;;;4769614;30;20152;-90
2023/01/08 19:40:42;;;;;;;;;;;;;;;;;;;;;
2023/01/08 20:00:35;;;;;;;1299.27;437.60;;;5.10;99.90;;;;;;5201339;23;20039;-92
2023/01/08 20:03:53;;;;;;;1345.80;494.37;;;5.10;99.90;;;;;;4969535;28;20101;-91
2023/01/08 20:06:52;;;;;;;;;;;;;;;;;;;;;
2023/01/08 20:20:14;;;;;;;1303.18;446.35;;;5.00;99.90;;;;;;4994056;23;20086;-90
2023/01/08 20:30:46;;;;;;;;;;;;;;;;;;;;;
2023/01/08 20:52:42;;;;;;;1285.18;479.90;;;5.00;99.90;;;;;;4875393;29;20128;-88
2023/01/08 21:21:59;;;;;;;;;;;;;;;;;;;;;
2023/01/08 21:37:25;;;;;;;1096.47;486.73;;;5.80;99.90;;;;;;4801180;29;20050;-88
2023/01/08 21:40:58;;;;;;;1087.80;414.93;;;5.10;99.90;;;;;;4819044;29;20154;-87
2023/01/08 21:48:48;;;;;;;;;;;;;;;;;;;;;
2023/01/08 22:00:03;;;;;;;1045.50;439.17;;;4.70;99.90;;;;;;4716902;30;20163;-88
2023/01/08 23:22:23;;;;;;;1006.37;493.60;;;4.80;99.90;;;;;;4966634;28;20334;-90
2023/01/08 23:26:16;;;;;;;;;;;;;;;;;;;;;
2023/01/08 23:29:54;;;;;;;1023.58;490.13;;;4.90;99.90;;;;;;4988275;28;20345;-90
2023/01/08 23:32:26;;;;;;;965.27;404.30;;;5.00;99.90;;;;;;4935538;29;20134;-89
2023/01/08 23:36:11;;;;;;;958.77;395.27;;;5.10;99.90;;;;;;4928435;29;20303;-89
2023/01/08 23:40:20;;;;;;;;;;;;;;;;;;;;;
2023/01/08 23:47:48;;;;;;;986.93;482.10;;;5.50;99.90;;;;;;4822866;29;20465;-90
2023/01/08 23:51:41;;;;;;;;;;;;;;;;;;;;;
